Pittsburgh, PA (15209)

5:39 AM EST on February 07, 2016 (GMT -0500)
Evergreen Hamlet | | Change Station
CLOSE
Current Station
Personal Weather Station
Location: Pittsburgh, PA
Elevation: 1060 ft
Nearby Weather Stations

Elev 1060 ft 40.51 °N, 79.99 °W | Updated 6 minutes ago

Clear
Clear
20.8 °F
Feels Like 21 °F
N
0.0
Wind Variable Wind from NNE

Today
High -- | Low -- °F
--% Chance of Precip.
Yesterday
High -- | Low -- °F
Precip. -- in
Pressure 30.17 in
Visibility 10.0 miles
Clouds Clear
Windchill 21 °F
Dew Point 16 °F
Humidity 81%
Rainfall 0.00 in
Snow Depth Not available.
7:23 AM 5:44 PM
Waning Crescent, 2% visible
METAR KAGC 070953Z AUTO 19003KT 10SM CLR M01/M10 A3012 RMK AO2 SLP214 T10061100 TSNO
Pressure 30.17 in
Visibility 10.0 miles
Clouds Clear
Windchill 21 °F
Dew Point 16 °F
Humidity 81%
Rainfall 0.00 in
Snow Depth Not available.
7:23 AM 5:44 PM
Waning Crescent, 2% visible
METAR KAGC 070953Z AUTO 19003KT 10SM CLR M01/M10 A3012 RMK AO2 SLP214 T10061100 TSNO

10-Day Weather Forecast

Almanac

Astronomy

Feb. 07, 2016 Rise Set
Actual Time
Civil Twilight
Nautical Twilight
Astronomical Twilight
Moon
Length of Visible Light
Length of Day
Tomorrow will be .
, % of the Moon is Illuminated

Today's Extremes

State Highs State Lows

Community

WunderPhotos

Upload Photos

1,891,171 photos uploaded!

WunderBlog® & News

Nearby

Air Quality

  Air Quality AQ Index Pollutant
Not available.

Snow Depth

Station Depth Elevation

Earthquake Activity

City Distance Mag. Time & Date
Minimum magnitude displayed is 2.5.

Coastal Water Temperatures

Place Temperature

Stations

Nearby Weather Stations

Station Location Temp. Windchill Dew Point Humidity Wind Precip. Elev Updated Type
                   

Watches & Warnings

There are currently no watches in effect.